Airfield :
LOGIN :

Register | Disclaimer

   EN    FR    IT 

 










Legend :    VFR   Marginal VFR   IFR   Intensive IFR   Very Intensive IFR
Visi :
Ceiling :
>= 8 km
>= 3000ft
5 to 8 km
1000 to 3000 ft
1500m to 5 km
500 to 1000 ft
800 to 1500m
200 to 500 ft
< 800m
< 200 ft
Symbols :   Thunderstorms  Fog  Heavy snow  Heavy precipitations  Wind > 20 kt
SIGMETs :     Misc.  Thunderstorms  Icing  Turbulence  Mountain Waves  Volcanic Ashes







- Airport Elevation : 74 ft
- IATA code : MRS
- Download approach charts


LFML - Marseille / Marignane

CURRENT METAR :
  • 190430Z AUTO 15004KT CAVOK 13/08 Q1023 NOSIG

EXPIRED METARs :
  • 190400Z AUTO 15003KT 110V200 CAVOK 13/08 Q1023 NOSIG
  • 190330Z AUTO VRB02KT CAVOK 13/08 Q1023 NOSIG
  • 190300Z AUTO 17004KT 100V230 CAVOK 13/08 Q1022 NOSIG
  • 190230Z AUTO VRB03KT CAVOK 13/07 Q1022 NOSIG
  • 190200Z AUTO VRB02KT CAVOK 13/07 Q1022 NOSIG

TAF TAF LFML
Valid from the 19 at 03:00 until the 20 at 09:00 UTC


190200Z 1903/2009 10005KT CAVOK TX23/1913Z TN12/1904Z
BECMG 1907/1909 11015KT
TEMPO 1909/1918 12015G25KT
BECMG 1919/1921 04005KT
BECMG 2006/2008 10012KT
ATIS : +33 4 42 31 15 15
No reported NOTAMs for that airfield.
2 SIGMETs reported for the Marseille FIR (LFMM) :
 
Severe turbulence
LFMM SIGMET 6 VALID 190100/190500 LFPW
LFMM MARSEILLE FIR/UIR SEV TURB FCST WI N4315 E00230 - N4400 E00245 - N4430 E00330 - N4400 E00400 - N4315 E00230 SFC/FL050 STNR NC=
Severe turbulence
LFMM SIGMET 1 VALID 190500/190900 LFPW
LFMM MARSEILLE FIR/UIR SEV TURB FCST WI N4315 E00230 - N4415 E00245 - N4500 E00345 - N4445 E00415 - N4315 E00230 SFC/FL060 STNR NC=



MET'MAP, your aeronautical weather chart ! - Copyright ORBIFLY December 2007 - Disclaimer

ORBIFLY MET'MAP TEAM :

Programming & Development : Alexandra Zaïnal
Concept & Development : Baudouin d'Aumeries
Co-Development & Prog : Marc-Olivier Méhu
Technical & hardware support : Manuel Goepfert

Contact : metmap@orbifly.com




SOURCES & CREDITS :

   NOAA